createdAt,value
2023-02-03T00:00:01.658Z,100772.81
2023-02-03T00:00:13.803Z,100774.53
2023-02-03T00:00:28.623Z,100784.88
2023-02-03T00:00:40.599Z,100767.66
2023-02-03T00:00:52.511Z,100778.00
2023-02-03T00:01:04.642Z,100778.84
2023-02-03T00:01:16.874Z,100780.56
2023-02-03T00:01:28.885Z,100782.28
2023-02-03T00:01:41.029Z,100777.97
2023-02-03T00:01:55.292Z,100782.31
2023-02-03T00:02:07.449Z,100755.59
2023-02-03T00:02:19.542Z,100781.44
2023-02-03T00:02:31.505Z,100782.28
2023-02-03T00:02:43.459Z,100765.94
2023-02-03T00:02:55.508Z,100790.03
2023-02-03T00:03:07.558Z,100787.47
2023-02-03T00:03:19.592Z,100778.00
2023-02-03T00:03:31.553Z,100793.50
2023-02-03T00:03:43.511Z,100777.13
2023-02-03T00:03:55.503Z,100777.13
2023-02-03T00:04:07.430Z,100784.00
2023-02-03T00:04:19.400Z,100778.00
2023-02-03T00:04:31.350Z,100779.72
2023-02-03T00:04:43.268Z,100804.72
2023-02-03T00:04:55.256Z,100789.22
2023-02-03T00:05:07.908Z,100789.19
2023-02-03T00:05:21.738Z,100771.09
2023-02-03T00:05:35.514Z,100783.16
2023-02-03T00:05:47.933Z,100788.31
2023-02-03T00:06:02.273Z,100771.97
2023-02-03T00:06:14.252Z,100760.75
2023-02-03T00:06:26.280Z,100783.16
2023-02-03T00:06:38.200Z,100786.63
2023-02-03T00:06:51.006Z,100781.44
2023-02-03T00:07:03.096Z,100786.59
2023-02-03T00:07:15.527Z,100774.53
2023-02-03T00:07:27.579Z,100774.53
2023-02-03T00:07:40.040Z,100790.03
2023-02-03T00:07:52.220Z,100779.69
2023-02-03T00:08:07.377Z,100784.00
2023-02-03T00:08:20.097Z,100787.47
2023-02-03T00:08:32.096Z,100791.75
2023-02-03T00:08:44.363Z,100782.28
2023-02-03T00:08:58.199Z,100785.72
2023-02-03T00:09:10.229Z,100775.41
2023-02-03T00:09:23.370Z,100786.59
2023-02-03T00:09:35.331Z,100784.88
2023-02-03T00:09:47.258Z,100775.41
2023-02-03T00:09:59.251Z,100772.81
2023-02-03T00:10:11.508Z,100771.97
2023-02-03T00:10:23.896Z,100779.69
2023-02-03T00:10:37.230Z,100781.44
2023-02-03T00:10:54.132Z,100775.41
2023-02-03T00:11:06.775Z,100783.16
2023-02-03T00:11:18.711Z,100760.75
2023-02-03T00:11:32.513Z,100767.66
2023-02-03T00:11:44.476Z,100769.38
2023-02-03T00:11:56.424Z,100774.53
2023-02-03T00:12:09.482Z,100775.41
2023-02-03T00:12:21.387Z,100782.28
2023-02-03T00:12:34.129Z,100789.19
2023-02-03T00:12:46.028Z,100784.03
2023-02-03T00:12:58.202Z,100750.41
2023-02-03T00:13:10.167Z,100771.09
2023-02-03T00:13:22.640Z,100755.59
2023-02-03T00:13:35.759Z,100745.25
2023-02-03T00:13:47.717Z,100764.19
2023-02-03T00:13:59.817Z,100783.16
2023-02-03T00:14:11.841Z,100760.75
2023-02-03T00:14:23.803Z,100774.53
2023-02-03T00:14:37.895Z,100759.03
2023-02-03T00:14:49.845Z,100762.47
2023-02-03T00:15:02.026Z,100768.53
2023-02-03T00:15:13.955Z,100771.94
2023-02-03T00:15:26.797Z,100746.97
2023-02-03T00:15:38.739Z,100771.09
2023-02-03T00:15:50.628Z,100767.66
2023-02-03T00:16:02.669Z,100774.53
2023-02-03T00:16:14.739Z,100758.19
2023-02-03T00:16:26.815Z,100757.31
2023-02-03T00:16:38.841Z,100765.06
2023-02-03T00:16:50.913Z,100769.38
2023-02-03T00:17:02.853Z,100769.38
2023-02-03T00:17:15.217Z,100759.88
2023-02-03T00:17:27.152Z,100767.63
2023-02-03T00:17:39.103Z,100765.06
2023-02-03T00:17:51.009Z,100746.13
2023-02-03T00:18:03.125Z,100763.34
2023-02-03T00:18:15.235Z,100767.66
2023-02-03T00:18:27.304Z,100764.19
2023-02-03T00:18:39.248Z,100770.25
2023-02-03T00:18:51.169Z,100759.88
2023-02-03T00:19:03.645Z,100774.56
2023-02-03T00:19:17.405Z,100767.66
2023-02-03T00:19:29.599Z,100769.38
2023-02-03T00:19:41.506Z,100778.00
2023-02-03T00:19:53.488Z,100772.81
2023-02-03T00:20:05.995Z,100771.09
2023-02-03T00:20:18.072Z,100773.69
2023-02-03T00:20:35.871Z,100764.19
2023-02-03T00:20:47.859Z,100763.34
2023-02-03T00:20:59.790Z,100782.31
2023-02-03T00:21:11.696Z,100775.41
2023-02-03T00:21:24.677Z,100784.88
2023-02-03T00:21:36.611Z,100769.38
2023-02-03T00:21:48.586Z,100759.03
2023-02-03T00:22:00.597Z,100786.59
2023-02-03T00:22:13.445Z,100770.22
2023-02-03T00:22:25.361Z,100781.44
2023-02-03T00:22:37.538Z,100782.31
2023-02-03T00:22:49.568Z,100776.25
2023-02-03T00:23:09.330Z,100772.81
2023-02-03T00:23:21.243Z,100768.50
2023-02-03T00:23:33.298Z,100780.56
2023-02-03T00:23:45.323Z,100776.25
2023-02-03T00:23:57.255Z,100765.94
2023-02-03T00:24:09.187Z,100776.25
2023-02-03T00:24:23.305Z,100776.25
2023-02-03T00:24:35.220Z,100770.22
2023-02-03T00:24:47.160Z,100768.50
2023-02-03T00:24:59.563Z,100771.94
2023-02-03T00:25:11.595Z,100775.41
2023-02-03T00:25:23.614Z,100769.38
2023-02-03T00:25:35.974Z,100768.50
2023-02-03T00:25:47.912Z,100762.47
2023-02-03T00:26:13.601Z,100767.66
2023-02-03T00:26:26.006Z,100779.72
2023-02-03T00:26:42.447Z,100778.81
2023-02-03T00:26:54.546Z,100774.53
2023-02-03T00:27:06.524Z,100767.66
2023-02-03T00:27:18.424Z,100787.44
2023-02-03T00:27:30.379Z,100787.47
2023-02-03T00:27:42.339Z,100768.53
2023-02-03T00:27:54.260Z,100762.47
2023-02-03T00:28:06.983Z,100768.53
2023-02-03T00:28:18.939Z,100768.50
2023-02-03T00:28:31.801Z,100776.25
2023-02-03T00:28:44.247Z,100756.47
2023-02-03T00:28:56.236Z,100782.28
2023-02-03T00:29:09.523Z,100773.69
2023-02-03T00:29:25.655Z,100774.53
2023-02-03T00:29:37.572Z,100780.59
2023-02-03T00:29:49.544Z,100790.94
2023-02-03T00:30:01.516Z,100773.66
2023-02-03T00:30:13.599Z,100777.97
2023-02-03T00:30:25.714Z,100779.69
2023-02-03T00:30:38.147Z,100802.13
2023-02-03T00:30:50.121Z,100783.16
2023-02-03T00:31:02.031Z,100791.78
2023-02-03T00:31:22.478Z,100777.13
2023-02-03T00:31:34.916Z,100793.50
2023-02-03T00:31:46.958Z,100765.06
2023-02-03T00:31:59.154Z,100762.47
2023-02-03T00:32:11.238Z,100777.97
2023-02-03T00:32:23.319Z,100771.09
2023-02-03T00:32:35.393Z,100799.53
2023-02-03T00:32:47.399Z,100782.31
2023-02-03T00:32:59.341Z,100781.44
2023-02-03T00:33:11.233Z,100777.97
2023-02-03T00:33:23.134Z,100776.25
2023-02-03T00:33:35.122Z,100781.44
2023-02-03T00:33:48.033Z,100782.28
2023-02-03T00:34:00.037Z,100779.69
2023-02-03T00:34:11.993Z,100765.06
2023-02-03T00:34:27.462Z,100779.72
2023-02-03T00:34:39.383Z,100757.28
2023-02-03T00:34:51.312Z,100791.78
2023-02-03T00:35:03.629Z,100781.44
2023-02-03T00:35:15.637Z,100788.31
2023-02-03T00:35:28.151Z,100762.50
2023-02-03T00:35:40.404Z,100781.44
2023-02-03T00:35:52.297Z,100769.38
2023-02-03T00:36:06.002Z,100770.22
2023-02-03T00:36:17.945Z,100799.53
2023-02-03T00:36:29.882Z,100778.84
2023-02-03T00:36:43.053Z,100784.88
2023-02-03T00:36:55.065Z,100776.25
2023-02-03T00:37:07.194Z,100783.16
2023-02-03T00:37:19.168Z,100771.97
2023-02-03T00:37:31.207Z,100787.47
2023-02-03T00:37:43.452Z,100762.47
2023-02-03T00:37:56.778Z,100776.25
2023-02-03T00:38:08.724Z,100784.88
2023-02-03T00:38:20.767Z,100779.72
2023-02-03T00:38:32.713Z,100779.72
2023-02-03T00:38:44.602Z,100790.06
2023-02-03T00:38:56.678Z,100775.41
2023-02-03T00:39:08.699Z,100771.09
2023-02-03T00:39:20.634Z,100781.44
2023-02-03T00:39:32.572Z,100783.16
2023-02-03T00:39:47.557Z,100794.34
2023-02-03T00:39:59.529Z,100769.38
2023-02-03T00:40:12.295Z,100772.81
2023-02-03T00:40:27.655Z,100781.44
2023-02-03T00:40:39.697Z,100779.72
2023-02-03T00:40:53.365Z,100776.25
2023-02-03T00:41:08.226Z,100771.97
2023-02-03T00:41:21.771Z,100783.16
2023-02-03T00:41:33.763Z,100791.78
2023-02-03T00:41:45.714Z,100781.44
2023-02-03T00:41:57.758Z,100771.09
2023-02-03T00:42:09.733Z,100779.72
2023-02-03T00:42:21.737Z,100782.28
2023-02-03T00:42:36.559Z,100777.97
2023-02-03T00:42:48.576Z,100781.44
2023-02-03T00:43:00.522Z,100780.59
2023-02-03T00:43:12.443Z,100781.44
2023-02-03T00:43:24.381Z,100769.38
2023-02-03T00:43:36.424Z,100771.09
2023-02-03T00:43:49.322Z,100782.28
2023-02-03T00:44:01.293Z,100776.25
2023-02-03T00:44:14.624Z,100774.56
2023-02-03T00:44:26.594Z,100778.00
2023-02-03T00:44:38.537Z,100776.28
2023-02-03T00:44:50.505Z,100773.69
2023-02-03T00:45:02.684Z,100789.19
2023-02-03T00:45:14.631Z,100791.75
2023-02-03T00:45:26.573Z,100777.13
2023-02-03T00:45:38.612Z,100764.19
2023-02-03T00:45:50.704Z,100769.38
2023-02-03T00:46:02.739Z,100771.97
2023-02-03T00:46:14.910Z,100781.44
2023-02-03T00:46:26.874Z,100776.25
2023-02-03T00:46:38.894Z,100777.97
2023-02-03T00:46:51.032Z,100773.69
2023-02-03T00:47:06.036Z,100774.56
2023-02-03T00:47:17.983Z,100773.69
2023-02-03T00:47:29.937Z,100771.09
2023-02-03T00:47:45.180Z,100765.06
2023-02-03T00:47:57.108Z,100774.53
2023-02-03T00:48:09.002Z,100790.03
2023-02-03T00:48:20.999Z,100790.06
2023-02-03T00:48:32.915Z,100778.84
2023-02-03T00:48:44.851Z,100781.44
2023-02-03T00:48:56.874Z,100794.38
2023-02-03T00:49:08.815Z,100786.59
2023-02-03T00:49:20.752Z,100795.22
2023-02-03T00:49:32.715Z,100786.59
2023-02-03T00:49:44.736Z,100783.16
2023-02-03T00:49:59.225Z,100785.75
2023-02-03T00:50:11.301Z,100781.44
2023-02-03T00:50:23.261Z,100785.75
2023-02-03T00:50:35.404Z,100778.00
2023-02-03T00:50:48.043Z,100782.28
2023-02-03T00:51:00.202Z,100786.59
2023-02-03T00:51:14.687Z,100778.84
2023-02-03T00:51:29.185Z,100779.69
2023-02-03T00:51:41.163Z,100790.06
2023-02-03T00:51:53.325Z,100784.91
2023-02-03T00:52:05.514Z,100771.09
2023-02-03T00:52:17.576Z,100784.88
2023-02-03T00:52:29.511Z,100786.59
2023-02-03T00:52:41.462Z,100784.91
2023-02-03T00:52:53.419Z,100776.28
2023-02-03T00:53:05.510Z,100777.97
2023-02-03T00:53:17.440Z,100788.34
2023-02-03T00:53:29.358Z,100753.88
2023-02-03T00:53:41.312Z,100782.28
2023-02-03T00:53:53.285Z,100777.13
2023-02-03T00:54:05.256Z,100777.13
2023-02-03T00:54:17.666Z,100791.78
2023-02-03T00:54:31.612Z,100780.56
2023-02-03T00:54:44.527Z,100788.31
2023-02-03T00:54:56.477Z,100773.69
2023-02-03T00:55:09.466Z,100774.56
2023-02-03T00:55:21.393Z,100771.97
2023-02-03T00:55:33.394Z,100778.88
2023-02-03T00:55:45.339Z,100764.22
2023-02-03T00:55:57.248Z,100783.16
2023-02-03T00:56:12.593Z,100765.91
2023-02-03T00:56:24.758Z,100771.94
2023-02-03T00:56:36.727Z,100769.38
2023-02-03T00:56:51.637Z,100764.19
2023-02-03T00:57:03.666Z,100768.50
2023-02-03T00:57:15.765Z,100777.13
2023-02-03T00:57:27.791Z,100774.53
2023-02-03T00:57:39.701Z,100797.81
2023-02-03T00:57:51.605Z,100759.88
2023-02-03T00:58:03.572Z,100784.88
2023-02-03T00:58:15.584Z,100783.16
2023-02-03T00:58:27.520Z,100772.84
2023-02-03T00:58:42.466Z,100789.19
2023-02-03T00:58:54.394Z,100772.81
2023-02-03T00:59:06.944Z,100758.19
2023-02-03T00:59:18.881Z,100753.84
2023-02-03T00:59:30.820Z,100760.75
2023-02-03T00:59:42.823Z,100750.41
2023-02-03T00:59:55.141Z,100781.44
2023-02-03T01:00:07.772Z,100748.69
2023-02-03T01:00:22.822Z,100768.50
2023-02-03T01:00:34.866Z,100765.06
2023-02-03T01:00:46.802Z,100752.13
2023-02-03T01:00:58.751Z,100751.28
2023-02-03T01:01:11.120Z,100756.44
2023-02-03T01:01:23.131Z,100752.13
2023-02-03T01:01:37.969Z,100747.81
2023-02-03T01:01:51.036Z,100759.03
2023-02-03T01:02:02.984Z,100762.47
2023-02-03T01:02:17.625Z,100761.59
2023-02-03T01:02:29.625Z,100774.53
2023-02-03T01:02:41.721Z,100748.69
2023-02-03T01:02:53.680Z,100759.03
2023-02-03T01:03:05.920Z,100759.03
2023-02-03T01:03:17.901Z,100750.41
2023-02-03T01:03:29.844Z,100747.84
2023-02-03T01:03:41.800Z,100765.91
2023-02-03T01:03:55.965Z,100761.63
2023-02-03T01:04:08.205Z,100744.41
2023-02-03T01:04:23.324Z,100769.38
2023-02-03T01:04:35.232Z,100754.72
2023-02-03T01:04:47.154Z,100764.19
2023-02-03T01:04:59.047Z,100746.94
2023-02-03T01:05:11.099Z,100752.13
2023-02-03T01:05:23.588Z,100761.63
2023-02-03T01:05:35.536Z,100751.28
2023-02-03T01:05:47.428Z,100765.94
2023-02-03T01:06:28.553Z,100762.47
2023-02-03T01:06:41.085Z,100756.44
2023-02-03T01:06:56.272Z,100753.84
2023-02-03T01:07:08.217Z,100757.31
2023-02-03T01:07:20.172Z,100756.44
2023-02-03T01:07:33.209Z,100755.59
2023-02-03T01:07:45.135Z,100772.81
2023-02-03T01:07:57.084Z,100781.44
2023-02-03T01:08:12.025Z,100768.50
2023-02-03T01:08:23.945Z,100758.16
2023-02-03T01:08:35.915Z,100764.19
2023-02-03T01:08:48.647Z,100758.19
2023-02-03T01:09:03.149Z,100752.16
2023-02-03T01:09:15.108Z,100753.88
2023-02-03T01:09:27.099Z,100748.69
2023-02-03T01:09:39.109Z,100742.66
2023-02-03T01:09:51.149Z,100766.78
2023-02-03T01:10:04.326Z,100750.41
2023-02-03T01:10:16.515Z,100743.50
2023-02-03T01:10:32.083Z,100746.97
2023-02-03T01:10:44.038Z,100752.13
2023-02-03T01:10:55.991Z,100753.00
2023-02-03T01:11:13.749Z,100759.03
2023-02-03T01:11:27.592Z,100760.75
2023-02-03T01:11:39.538Z,100752.13
2023-02-03T01:11:51.619Z,100750.44
2023-02-03T01:12:05.221Z,100751.25
2023-02-03T01:12:17.116Z,100766.81
2023-02-03T01:12:30.545Z,100769.38
2023-02-03T01:12:42.552Z,100760.78
2023-02-03T01:12:54.500Z,100757.31
2023-02-03T01:13:06.455Z,100758.19
2023-02-03T01:13:18.370Z,100752.13
2023-02-03T01:13:30.259Z,100760.75
2023-02-03T01:13:42.215Z,100741.81
2023-02-03T01:13:56.216Z,100777.13
2023-02-03T01:14:10.395Z,100771.94
2023-02-03T01:14:22.337Z,100754.72
2023-02-03T01:14:35.013Z,100788.31
2023-02-03T01:14:46.956Z,100776.25
2023-02-03T01:14:59.040Z,100741.78
2023-02-03T01:15:10.985Z,100738.34
2023-02-03T01:15:22.968Z,100760.75
2023-02-03T01:15:34.942Z,100750.41
2023-02-03T01:15:48.258Z,100762.47
2023-02-03T01:16:00.331Z,100755.59
2023-02-03T01:16:15.026Z,100752.13
2023-02-03T01:16:28.755Z,100749.53
2023-02-03T01:16:41.017Z,100744.38
2023-02-03T01:16:53.101Z,100750.41
2023-02-03T01:17:05.193Z,100739.22
2023-02-03T01:17:17.129Z,100733.16
2023-02-03T01:17:29.077Z,100756.44
2023-02-03T01:17:43.998Z,100750.41
2023-02-03T01:17:55.975Z,100748.69
2023-02-03T01:18:07.930Z,100746.97
2023-02-03T01:18:21.073Z,100754.72
2023-02-03T01:18:32.971Z,100754.72
2023-02-03T01:18:45.807Z,100756.44
2023-02-03T01:18:57.772Z,100739.22
2023-02-03T01:19:09.746Z,100764.22
2023-02-03T01:19:21.825Z,100753.00
2023-02-03T01:19:34.303Z,100752.13
2023-02-03T01:19:46.260Z,100751.28
2023-02-03T01:19:58.185Z,100759.03
2023-02-03T01:20:12.296Z,100749.56
2023-02-03T01:20:28.692Z,100746.97
2023-02-03T01:20:40.822Z,100761.63
2023-02-03T01:20:52.741Z,100751.25
2023-02-03T01:21:07.168Z,100756.44
2023-02-03T01:21:26.320Z,100755.59
2023-02-03T01:21:38.251Z,100765.94
2023-02-03T01:21:50.334Z,100776.25
2023-02-03T01:22:02.288Z,100761.63
2023-02-03T01:22:14.277Z,100756.47
2023-02-03T01:22:26.208Z,100734.88
2023-02-03T01:22:38.168Z,100759.03
2023-02-03T01:22:50.121Z,100755.59
2023-02-03T01:23:02.115Z,100738.34
2023-02-03T01:23:14.092Z,100746.94
2023-02-03T01:23:25.983Z,100754.72
2023-02-03T01:23:38.358Z,100745.25
2023-02-03T01:23:51.361Z,100752.13
2023-02-03T01:24:03.618Z,100758.19
2023-02-03T01:24:15.557Z,100755.59
2023-02-03T01:24:29.660Z,100752.13
2023-02-03T01:24:41.613Z,100761.63
2023-02-03T01:24:53.548Z,100757.31
2023-02-03T01:25:05.847Z,100752.13
2023-02-03T01:25:17.870Z,100741.78
2023-02-03T01:25:29.763Z,100759.88
2023-02-03T01:25:41.684Z,100746.97
2023-02-03T01:25:53.587Z,100765.94
2023-02-03T01:26:07.663Z,100753.84
2023-02-03T01:26:21.701Z,100756.47
2023-02-03T01:26:33.605Z,100761.63
2023-02-03T01:26:45.608Z,100754.72
2023-02-03T01:26:57.582Z,100756.44
2023-02-03T01:27:09.817Z,100759.91
2023-02-03T01:27:21.784Z,100742.66
2023-02-03T01:27:33.857Z,100759.03
2023-02-03T01:27:45.773Z,100746.09
2023-02-03T01:27:57.738Z,100755.56
2023-02-03T01:28:09.864Z,100759.88
2023-02-03T01:28:21.769Z,100745.22
2023-02-03T01:28:34.243Z,100765.06
2023-02-03T01:28:57.905Z,100764.19
2023-02-03T01:29:09.936Z,100767.66
2023-02-03T01:29:21.885Z,100768.50
2023-02-03T01:29:33.824Z,100775.41
2023-02-03T01:29:45.710Z,100759.88
2023-02-03T01:29:57.833Z,100746.97
2023-02-03T01:30:10.807Z,100750.41
2023-02-03T01:30:22.819Z,100757.31
2023-02-03T01:30:34.774Z,100758.16
2023-02-03T01:30:46.857Z,100765.06
2023-02-03T01:31:09.426Z,100777.97
2023-02-03T01:31:25.006Z,100772.81
2023-02-03T01:31:40.190Z,100762.47
2023-02-03T01:31:52.322Z,100762.50
2023-02-03T01:32:04.485Z,100765.94
2023-02-03T01:32:16.528Z,100774.56
2023-02-03T01:32:28.419Z,100758.16
2023-02-03T01:32:40.325Z,100765.06
2023-02-03T01:32:52.240Z,100757.31
2023-02-03T01:33:04.137Z,100758.16
2023-02-03T01:33:16.010Z,100771.09
2023-02-03T01:33:29.962Z,100757.28
2023-02-03T01:33:46.104Z,100753.84
2023-02-03T01:33:58.677Z,100778.84
2023-02-03T01:34:16.424Z,100760.75
2023-02-03T01:34:28.626Z,100773.69
2023-02-03T01:34:40.516Z,100771.97
2023-02-03T01:34:52.407Z,100765.94
2023-02-03T01:35:04.486Z,100770.25
2023-02-03T01:35:16.563Z,100775.41
2023-02-03T01:35:28.452Z,100771.13
2023-02-03T01:35:40.357Z,100771.09
2023-02-03T01:35:52.333Z,100776.28
2023-02-03T01:36:04.261Z,100759.88
2023-02-03T01:36:17.771Z,100766.78
2023-02-03T01:36:31.653Z,100770.25
2023-02-03T01:36:43.657Z,100756.47
2023-02-03T01:36:55.622Z,100763.34
2023-02-03T01:37:07.582Z,100770.22
2023-02-03T01:37:19.543Z,100764.19
2023-02-03T01:37:31.721Z,100759.03
2023-02-03T01:37:43.693Z,100759.91
2023-02-03T01:37:55.653Z,100761.63
2023-02-03T01:38:07.563Z,100765.94
2023-02-03T01:38:19.520Z,100757.31
2023-02-03T01:38:31.492Z,100779.72
2023-02-03T01:38:45.586Z,100756.44
2023-02-03T01:38:57.686Z,100760.75
2023-02-03T01:39:10.303Z,100748.69
2023-02-03T01:39:22.335Z,100753.84
2023-02-03T01:39:34.242Z,100775.41
2023-02-03T01:39:49.307Z,100714.22
2023-02-03T01:40:01.273Z,100749.56
2023-02-03T01:40:13.353Z,100753.00
2023-02-03T01:40:25.689Z,100764.19
2023-02-03T01:40:44.700Z,100764.19
2023-02-03T01:40:56.640Z,100756.44
2023-02-03T01:41:12.378Z,100759.91
2023-02-03T01:41:27.241Z,100744.38
2023-02-03T01:41:40.305Z,100749.53
2023-02-03T01:41:54.372Z,100748.69
2023-02-03T01:42:09.064Z,100754.72
2023-02-03T01:42:20.979Z,100740.91
2023-02-03T01:42:33.882Z,100736.59
2023-02-03T01:42:45.808Z,100756.44
2023-02-03T01:42:57.739Z,100752.13
2023-02-03T01:43:11.325Z,100756.44
2023-02-03T01:43:30.755Z,100746.97
2023-02-03T01:43:45.770Z,100748.69
2023-02-03T01:43:59.735Z,100763.34
2023-02-03T01:44:45.646Z,100751.28
2023-02-03T01:44:58.424Z,100761.59
2023-02-03T01:45:13.229Z,100738.34
2023-02-03T01:45:25.571Z,100750.41
2023-02-03T01:45:39.910Z,100748.69
2023-02-03T01:45:52.022Z,100746.97
2023-02-03T01:46:43.896Z,100753.84
2023-02-03T01:46:55.863Z,100730.56
2023-02-03T01:47:34.294Z,100746.97
2023-02-03T01:47:52.925Z,100743.53
2023-02-03T01:48:11.005Z,100746.09
2023-02-03T01:48:23.677Z,100753.00
2023-02-03T01:48:35.949Z,100746.09
2023-02-03T01:48:48.454Z,100751.25
2023-02-03T01:49:18.127Z,100745.25
2023-02-03T01:49:34.498Z,100751.28
2023-02-03T01:49:54.882Z,100743.53
2023-02-03T01:50:31.207Z,100734.88
2023-02-03T01:50:43.165Z,100740.09
2023-02-03T01:50:55.188Z,100739.22
2023-02-03T01:51:07.256Z,100735.75
2023-02-03T01:51:20.501Z,100738.34
2023-02-03T01:51:32.769Z,100741.78
2023-02-03T01:51:45.686Z,100733.19
2023-02-03T01:51:57.823Z,100728.88
2023-02-03T01:52:09.928Z,100734.06
2023-02-03T01:52:21.912Z,100734.91
2023-02-03T01:52:34.250Z,100741.81
2023-02-03T01:52:51.534Z,100728.88
2023-02-03T01:53:08.777Z,100722.84
2023-02-03T01:53:21.374Z,100721.97
2023-02-03T01:53:34.092Z,100727.16
2023-02-03T01:53:46.088Z,100714.22
2023-02-03T01:53:59.023Z,100719.38
2023-02-03T01:54:24.393Z,100726.28
2023-02-03T01:54:41.101Z,100715.09
2023-02-03T01:54:56.680Z,100717.69
2023-02-03T01:55:14.632Z,100715.94
2023-02-03T01:55:35.789Z,100710.78
2023-02-03T01:55:49.875Z,100709.06
2023-02-03T01:56:05.115Z,100720.25
2023-02-03T01:56:17.362Z,100714.22
2023-02-03T01:56:35.029Z,100711.66
2023-02-03T01:56:52.452Z,100715.06
2023-02-03T01:57:11.613Z,100710.78
2023-02-03T01:57:29.898Z,100720.25
2023-02-03T01:58:05.727Z,100721.13
2023-02-03T01:58:27.327Z,100713.38
2023-02-03T01:58:42.399Z,100707.34
2023-02-03T01:58:54.415Z,100711.66
2023-02-03T01:59:06.711Z,100703.91
2023-02-03T01:59:22.062Z,100710.78
2023-02-03T01:59:35.659Z,100701.31
2023-02-03T01:59:49.565Z,100715.09
2023-02-03T02:00:04.602Z,100713.38
2023-02-03T02:00:16.937Z,100708.22
2023-02-03T02:00:29.242Z,100709.06
2023-02-03T02:00:41.836Z,100717.66
2023-02-03T02:00:55.651Z,100714.22
2023-02-03T02:01:07.687Z,100711.66
2023-02-03T02:01:19.877Z,100690.97
2023-02-03T02:01:33.139Z,100703.03
2023-02-03T02:01:46.361Z,100705.63
2023-02-03T02:01:59.617Z,100713.34
2023-02-03T02:02:12.592Z,100704.75
2023-02-03T02:02:24.753Z,100703.00
2023-02-03T02:02:37.165Z,100700.44
2023-02-03T02:02:50.415Z,100697.84
2023-02-03T02:03:04.457Z,100683.25
2023-02-03T02:03:20.475Z,100695.28
2023-02-03T02:03:47.344Z,100696.16
2023-02-03T02:04:02.767Z,100674.59
2023-02-03T02:04:15.309Z,100698.72
2023-02-03T02:04:37.300Z,100715.06
2023-02-03T02:05:00.927Z,100697.00
2023-02-03T02:05:27.889Z,100701.31
2023-02-03T02:05:50.489Z,100702.16
2023-02-03T02:06:11.056Z,100695.28
2023-02-03T02:06:24.511Z,100703.03
2023-02-03T02:06:36.751Z,100701.28
2023-02-03T02:06:48.952Z,100702.16
2023-02-03T02:07:01.383Z,100703.88
2023-02-03T02:07:14.400Z,100703.00
2023-02-03T02:07:26.682Z,100703.03
2023-02-03T02:07:41.058Z,100709.03
2023-02-03T02:07:53.576Z,100721.09
2023-02-03T02:08:07.240Z,100702.16
2023-02-03T02:08:22.360Z,100714.22
2023-02-03T02:08:35.693Z,100697.00
2023-02-03T02:08:50.946Z,100718.53
2023-02-03T02:09:03.388Z,100705.63
2023-02-03T02:09:16.313Z,100701.31
2023-02-03T02:09:29.107Z,100703.91
2023-02-03T02:09:41.351Z,100713.38
2023-02-03T02:09:54.770Z,100708.22
2023-02-03T02:10:07.095Z,100714.25
2023-02-03T02:10:19.121Z,100708.22
2023-02-03T02:10:31.902Z,100704.75
2023-02-03T02:10:44.712Z,100696.13
2023-02-03T02:10:58.624Z,100714.22
2023-02-03T02:11:10.657Z,100697.00
2023-02-03T02:11:22.711Z,100703.03
2023-02-03T02:11:34.734Z,100701.31
2023-02-03T02:11:46.648Z,100704.78
2023-02-03T02:11:58.573Z,100698.72
2023-02-03T02:12:12.026Z,100702.16
2023-02-03T02:12:24.024Z,100706.47
2023-02-03T02:12:35.984Z,100704.75
2023-02-03T02:12:48.557Z,100723.72
2023-02-03T02:13:02.896Z,100720.25
2023-02-03T02:13:17.813Z,100709.94
2023-02-03T02:13:32.685Z,100674.63
2023-02-03T02:13:46.017Z,100690.13
2023-02-03T02:14:02.411Z,100700.47
2023-02-03T02:14:14.444Z,100693.56
2023-02-03T02:14:26.394Z,100684.09
2023-02-03T02:14:40.481Z,100691.81
2023-02-03T02:14:52.881Z,100710.81
2023-02-03T02:15:05.441Z,100707.34
2023-02-03T02:15:18.086Z,100725.44
2023-02-03T02:15:54.485Z,100706.47
2023-02-03T02:16:10.535Z,100698.72
2023-02-03T02:16:53.284Z,100685.81
2023-02-03T02:17:33.540Z,100678.91
2023-02-03T02:18:00.271Z,100668.59
2023-02-03T02:18:33.217Z,100668.59
2023-02-03T02:19:14.157Z,100654.81
2023-02-03T02:19:44.780Z,100647.06
2023-02-03T02:20:14.586Z,100651.38
2023-02-03T02:20:50.603Z,100653.94
2023-02-03T02:21:30.128Z,100635.88
2023-02-03T02:22:06.635Z,100643.63
2023-02-03T02:22:34.968Z,100626.38
2023-02-03T02:22:52.862Z,100641.88
2023-02-03T02:23:28.820Z,100643.59
2023-02-03T02:24:11.731Z,100632.44
2023-02-03T02:24:53.975Z,100625.53
2023-02-03T02:25:26.706Z,100672.03
2023-02-03T02:26:04.144Z,100657.41
2023-02-03T02:26:37.775Z,100665.13
2023-02-03T02:27:20.820Z,100681.50
2023-02-03T02:28:03.519Z,100682.34
2023-02-03T02:28:53.433Z,100684.09
2023-02-03T02:29:45.686Z,100680.66
2023-02-03T02:30:22.471Z,100694.41
2023-02-03T02:30:53.905Z,100682.34
2023-02-03T02:31:43.598Z,100667.75
2023-02-03T02:32:23.338Z,100689.25
2023-02-03T02:32:47.073Z,100648.78
2023-02-03T02:33:20.733Z,100683.22
2023-02-03T02:33:48.506Z,100684.09
2023-02-03T02:34:31.293Z,100658.28
2023-02-03T02:34:52.196Z,100683.22
2023-02-03T02:35:16.262Z,100688.41
2023-02-03T02:36:04.657Z,100680.66
2023-02-03T02:36:31.634Z,100690.97
2023-02-03T02:36:52.197Z,100686.69
2023-02-03T02:37:48.661Z,100715.94
2023-02-03T02:38:19.015Z,100674.63
2023-02-03T02:38:36.477Z,100680.66
2023-02-03T02:39:09.814Z,100675.47
2023-02-03T02:39:25.261Z,100672.00
2023-02-03T02:39:46.235Z,100690.13
2023-02-03T02:40:07.216Z,100680.66
2023-02-03T02:40:38.733Z,100670.31
2023-02-03T02:40:56.363Z,100664.28
2023-02-03T02:41:20.145Z,100684.97
2023-02-03T02:41:41.282Z,100666.88
2023-02-03T02:41:58.461Z,100678.06
2023-02-03T02:42:26.167Z,100672.03
2023-02-03T02:42:43.784Z,100664.28
2023-02-03T02:43:33.893Z,100668.56
2023-02-03T02:43:55.415Z,100667.72
2023-02-03T02:44:16.092Z,100666.00
2023-02-03T02:44:34.822Z,100679.78
2023-02-03T02:44:58.107Z,100659.97
2023-02-03T02:45:26.461Z,100685.81
2023-02-03T02:46:02.361Z,100676.34
2023-02-03T02:46:46.515Z,100662.56
2023-02-03T02:47:02.437Z,100683.25
2023-02-03T02:47:17.736Z,100669.47
2023-02-03T02:47:30.050Z,100667.75
2023-02-03T02:47:42.006Z,100678.94
2023-02-03T02:48:02.849Z,100677.22
2023-02-03T02:48:26.303Z,100679.78
2023-02-03T02:48:54.988Z,100647.91
2023-02-03T02:49:15.858Z,100662.56
2023-02-03T02:49:42.758Z,100666.00
2023-02-03T02:50:02.934Z,100662.56
2023-02-03T02:50:22.798Z,100655.66
2023-02-03T02:50:41.313Z,100657.38
2023-02-03T02:50:56.535Z,100665.16
2023-02-03T02:51:12.331Z,100657.41